sensor_id;sensor_type;location;lat;lon;timestamp;temperature;humidity
2913;DHT22;1466;48.778;9.166;2023-08-21T00:00:16;28.50;98.80
2913;DHT22;1466;48.778;9.166;2023-08-21T00:02:42;28.50;98.90
2913;DHT22;1466;48.778;9.166;2023-08-21T00:05:08;28.40;98.90
2913;DHT22;1466;48.778;9.166;2023-08-21T00:07:34;28.40;98.90
2913;DHT22;1466;48.778;9.166;2023-08-21T00:10:00;28.40;99.00
2913;DHT22;1466;48.778;9.166;2023-08-21T00:12:25;28.40;99.10
2913;DHT22;1466;48.778;9.166;2023-08-21T00:14:51;28.40;99.10
2913;DHT22;1466;48.778;9.166;2023-08-21T00:17:16;28.40;99.20
2913;DHT22;1466;48.778;9.166;2023-08-21T00:19:42;28.30;99.30
2913;DHT22;1466;48.778;9.166;2023-08-21T00:22:07;28.30;99.30
2913;DHT22;1466;48.778;9.166;2023-08-21T00:24:33;28.30;99.40
2913;DHT22;1466;48.778;9.166;2023-08-21T00:26:58;28.30;99.50
2913;DHT22;1466;48.778;9.166;2023-08-21T00:29:24;28.30;99.60
2913;DHT22;1466;48.778;9.166;2023-08-21T00:31:50;28.30;99.60
2913;DHT22;1466;48.778;9.166;2023-08-21T00:34:15;28.40;99.60
2913;DHT22;1466;48.778;9.166;2023-08-21T00:36:41;28.30;99.70
2913;DHT22;1466;48.778;9.166;2023-08-21T00:39:06;28.20;99.90
2913;DHT22;1466;48.778;9.166;2023-08-21T00:41:32;28.20;99.90
2913;DHT22;1466;48.778;9.166;2023-08-21T00:43:59;28.20;99.90
2913;DHT22;1466;48.778;9.166;2023-08-21T00:46:25;28.10;99.90
2913;DHT22;1466;48.778;9.166;2023-08-21T00:48:51;28.10;99.90
2913;DHT22;1466;48.778;9.166;2023-08-21T00:51:17;28.10;99.90
2913;DHT22;1466;48.778;9.166;2023-08-21T00:53:43;28.10;99.90
2913;DHT22;1466;48.778;9.166;2023-08-21T00:56:09;28.10;99.90
2913;DHT22;1466;48.778;9.166;2023-08-21T00:58:35;28.10;99.90
2913;DHT22;1466;48.778;9.166;2023-08-21T01:01:01;28.10;99.90
2913;DHT22;1466;48.778;9.166;2023-08-21T01:03:28;28.10;99.90
2913;DHT22;1466;48.778;9.166;2023-08-21T01:05:54;28.00;99.90
2913;DHT22;1466;48.778;9.166;2023-08-21T01:08:40;28.00;99.90
2913;DHT22;1466;48.778;9.166;2023-08-21T01:11:25;28.00;99.90
2913;DHT22;1466;48.778;9.166;2023-08-21T01:16:44;27.80;99.90
2913;DHT22;1466;48.778;9.166;2023-08-21T01:19:22;27.80;99.90
2913;DHT22;1466;48.778;9.166;2023-08-21T01:21:50;27.80;99.90
2913;DHT22;1466;48.778;9.166;2023-08-21T01:24:19;27.80;99.90
2913;DHT22;1466;48.778;9.166;2023-08-21T01:26:45;27.90;99.90
2913;DHT22;1466;48.778;9.166;2023-08-21T01:29:10;27.80;99.90
2913;DHT22;1466;48.778;9.166;2023-08-21T01:31:37;27.80;99.90
2913;DHT22;1466;48.778;9.166;2023-08-21T01:34:06;27.70;99.90
2913;DHT22;1466;48.778;9.166;2023-08-21T01:36:35;27.80;99.90
2913;DHT22;1466;48.778;9.166;2023-08-21T01:39:01;27.80;99.90
2913;DHT22;1466;48.778;9.166;2023-08-21T01:41:26;27.80;99.90
2913;DHT22;1466;48.778;9.166;2023-08-21T01:43:52;27.70;99.90
2913;DHT22;1466;48.778;9.166;2023-08-21T01:46:17;27.60;99.90
2913;DHT22;1466;48.778;9.166;2023-08-21T01:48:43;27.60;99.90
2913;DHT22;1466;48.778;9.166;2023-08-21T01:51:09;27.50;99.90
2913;DHT22;1466;48.778;9.166;2023-08-21T01:53:34;27.50;99.90
2913;DHT22;1466;48.778;9.166;2023-08-21T01:56:00;27.50;99.90
2913;DHT22;1466;48.778;9.166;2023-08-21T01:58:25;27.50;99.90
2913;DHT22;1466;48.778;9.166;2023-08-21T02:00:51;27.50;99.90
2913;DHT22;1466;48.778;9.166;2023-08-21T02:03:16;27.40;99.90
2913;DHT22;1466;48.778;9.166;2023-08-21T02:05:42;27.40;99.90
2913;DHT22;1466;48.778;9.166;2023-08-21T02:08:12;27.40;99.90
2913;DHT22;1466;48.778;9.166;2023-08-21T02:10:38;27.40;99.90
2913;DHT22;1466;48.778;9.166;2023-08-21T02:13:03;27.40;99.90
2913;DHT22;1466;48.778;9.166;2023-08-21T02:15:29;27.40;99.90
2913;DHT22;1466;48.778;9.166;2023-08-21T02:17:55;27.40;99.90
2913;DHT22;1466;48.778;9.166;2023-08-21T02:20:20;27.40;99.90
2913;DHT22;1466;48.778;9.166;2023-08-21T02:22:46;27.30;99.90
2913;DHT22;1466;48.778;9.166;2023-08-21T02:25:11;27.30;99.90
2913;DHT22;1466;48.778;9.166;2023-08-21T02:27:37;27.30;99.90
2913;DHT22;1466;48.778;9.166;2023-08-21T02:30:03;27.30;99.90
2913;DHT22;1466;48.778;9.166;2023-08-21T02:32:28;27.30;99.90
2913;DHT22;1466;48.778;9.166;2023-08-21T02:34:54;27.20;99.90
2913;DHT22;1466;48.778;9.166;2023-08-21T02:37:20;27.20;99.90
2913;DHT22;1466;48.778;9.166;2023-08-21T02:39:45;27.20;99.90
2913;DHT22;1466;48.778;9.166;2023-08-21T02:42:11;27.20;99.90
2913;DHT22;1466;48.778;9.166;2023-08-21T02:44:36;27.30;99.90
2913;DHT22;1466;48.778;9.166;2023-08-21T02:47:02;27.30;99.90
2913;DHT22;1466;48.778;9.166;2023-08-21T02:49:28;27.20;99.90
2913;DHT22;1466;48.778;9.166;2023-08-21T02:51:53;27.30;99.90
2913;DHT22;1466;48.778;9.166;2023-08-21T02:54:19;27.20;99.90
2913;DHT22;1466;48.778;9.166;2023-08-21T02:56:44;27.10;99.90
2913;DHT22;1466;48.778;9.166;2023-08-21T02:59:10;26.90;99.90
2913;DHT22;1466;48.778;9.166;2023-08-21T03:01:36;26.90;99.90
2913;DHT22;1466;48.778;9.166;2023-08-21T03:04:01;26.80;99.90
2913;DHT22;1466;48.778;9.166;2023-08-21T03:06:27;26.90;99.90
2913;DHT22;1466;48.778;9.166;2023-08-21T03:08:52;26.90;99.90
2913;DHT22;1466;48.778;9.166;2023-08-21T03:11:18;26.90;99.90
2913;DHT22;1466;48.778;9.166;2023-08-21T03:13:44;26.90;99.90
2913;DHT22;1466;48.778;9.166;2023-08-21T03:16:09;26.90;99.90
2913;DHT22;1466;48.778;9.166;2023-08-21T03:18:57;26.90;99.90
2913;DHT22;1466;48.778;9.166;2023-08-21T03:21:23;26.90;99.90
2913;DHT22;1466;48.778;9.166;2023-08-21T03:23:55;26.80;99.90
2913;DHT22;1466;48.778;9.166;2023-08-21T03:26:21;26.90;99.90
2913;DHT22;1466;48.778;9.166;2023-08-21T03:28:46;26.80;99.90
2913;DHT22;1466;48.778;9.166;2023-08-21T03:31:12;26.90;99.90
2913;DHT22;1466;48.778;9.166;2023-08-21T03:33:37;26.90;99.90
2913;DHT22;1466;48.778;9.166;2023-08-21T03:36:03;26.80;99.90
2913;DHT22;1466;48.778;9.166;2023-08-21T03:38:29;26.80;99.90
2913;DHT22;1466;48.778;9.166;2023-08-21T03:40:55;26.70;99.90
2913;DHT22;1466;48.778;9.166;2023-08-21T03:43:20;26.60;99.90
2913;DHT22;1466;48.778;9.166;2023-08-21T03:45:46;26.50;99.90
2913;DHT22;1466;48.778;9.166;2023-08-21T03:48:11;26.50;99.90
2913;DHT22;1466;48.778;9.166;2023-08-21T03:50:38;26.60;99.90
2913;DHT22;1466;48.778;9.166;2023-08-21T03:53:04;26.50;99.90
2913;DHT22;1466;48.778;9.166;2023-08-21T03:55:29;26.50;99.90
2913;DHT22;1466;48.778;9.166;2023-08-21T03:57:55;26.50;99.90
2913;DHT22;1466;48.778;9.166;2023-08-21T04:00:21;26.50;99.90
2913;DHT22;1466;48.778;9.166;2023-08-21T04:02:46;26.50;99.90
2913;DHT22;1466;48.778;9.166;2023-08-21T04:05:12;26.40;99.90
2913;DHT22;1466;48.778;9.166;2023-08-21T04:07:37;26.40;99.90
2913;DHT22;1466;48.778;9.166;2023-08-21T04:10:03;26.40;99.90
2913;DHT22;1466;48.778;9.166;2023-08-21T04:12:29;26.40;99.90
2913;DHT22;1466;48.778;9.166;2023-08-21T04:14:54;26.40;99.90
2913;DHT22;1466;48.778;9.166;2023-08-21T04:17:21;26.50;99.90
2913;DHT22;1466;48.778;9.166;2023-08-21T04:19:47;26.50;99.90
2913;DHT22;1466;48.778;9.166;2023-08-21T04:22:12;26.50;99.90
2913;DHT22;1466;48.778;9.166;2023-08-21T04:24:40;26.40;99.90
2913;DHT22;1466;48.778;9.166;2023-08-21T04:27:05;26.20;99.90
2913;DHT22;1466;48.778;9.166;2023-08-21T04:29:31;26.20;99.90
2913;DHT22;1466;48.778;9.166;2023-08-21T04:31:56;26.20;99.90
2913;DHT22;1466;48.778;9.166;2023-08-21T04:34:22;26.10;99.90
2913;DHT22;1466;48.778;9.166;2023-08-21T04:36:47;26.10;99.90
2913;DHT22;1466;48.778;9.166;2023-08-21T04:39:14;26.20;99.90
2913;DHT22;1466;48.778;9.166;2023-08-21T04:41:41;26.20;99.90
2913;DHT22;1466;48.778;9.166;2023-08-21T04:44:06;26.20;99.90
2913;DHT22;1466;48.778;9.166;2023-08-21T04:46:32;26.20;99.90
2913;DHT22;1466;48.778;9.166;2023-08-21T04:48:58;26.20;99.90
2913;DHT22;1466;48.778;9.166;2023-08-21T04:51:23;26.30;99.90
2913;DHT22;1466;48.778;9.166;2023-08-21T04:53:49;26.30;99.90
2913;DHT22;1466;48.778;9.166;2023-08-21T04:56:14;26.30;99.90
2913;DHT22;1466;48.778;9.166;2023-08-21T04:58:40;26.30;99.90
2913;DHT22;1466;48.778;9.166;2023-08-21T05:01:05;26.30;99.90
2913;DHT22;1466;48.778;9.166;2023-08-21T05:03:31;26.30;99.90
2913;DHT22;1466;48.778;9.166;2023-08-21T05:05:57;26.30;99.90
2913;DHT22;1466;48.778;9.166;2023-08-21T05:08:24;26.30;99.90
2913;DHT22;1466;48.778;9.166;2023-08-21T05:10:59;26.30;99.90
2913;DHT22;1466;48.778;9.166;2023-08-21T05:13:25;26.40;99.90
2913;DHT22;1466;48.778;9.166;2023-08-21T05:15:55;26.40;99.90
2913;DHT22;1466;48.778;9.166;2023-08-21T05:18:22;26.50;99.90
2913;DHT22;1466;48.778;9.166;2023-08-21T05:20:49;26.50;99.90
2913;DHT22;1466;48.778;9.166;2023-08-21T05:23:15;26.50;99.90
2913;DHT22;1466;48.778;9.166;2023-08-21T05:25:41;26.50;99.90
2913;DHT22;1466;48.778;9.166;2023-08-21T05:28:07;26.50;99.90
2913;DHT22;1466;48.778;9.166;2023-08-21T05:30:32;26.50;99.90
2913;DHT22;1466;48.778;9.166;2023-08-21T05:32:58;26.50;99.90
2913;DHT22;1466;48.778;9.166;2023-08-21T05:35:24;26.50;99.90
2913;DHT22;1466;48.778;9.166;2023-08-21T05:37:49;26.50;99.90
2913;DHT22;1466;48.778;9.166;2023-08-21T05:40:15;26.60;99.90
2913;DHT22;1466;48.778;9.166;2023-08-21T05:42:40;26.60;99.90
2913;DHT22;1466;48.778;9.166;2023-08-21T05:45:06;26.70;99.90
2913;DHT22;1466;48.778;9.166;2023-08-21T05:47:32;26.80;99.90
2913;DHT22;1466;48.778;9.166;2023-08-21T05:49:57;26.90;99.90
2913;DHT22;1466;48.778;9.166;2023-08-21T05:52:23;26.90;99.90
2913;DHT22;1466;48.778;9.166;2023-08-21T05:54:49;26.90;99.90
2913;DHT22;1466;48.778;9.166;2023-08-21T05:57:14;26.90;99.90
2913;DHT22;1466;48.778;9.166;2023-08-21T05:59:44;26.90;99.90
2913;DHT22;1466;48.778;9.166;2023-08-21T06:02:10;26.90;99.90
2913;DHT22;1466;48.778;9.166;2023-08-21T06:04:40;26.80;99.90
2913;DHT22;1466;48.778;9.166;2023-08-21T06:07:06;26.80;99.90
2913;DHT22;1466;48.778;9.166;2023-08-21T06:09:32;26.90;99.90
2913;DHT22;1466;48.778;9.166;2023-08-21T06:12:00;26.90;99.90
2913;DHT22;1466;48.778;9.166;2023-08-21T06:14:26;27.00;99.90
2913;DHT22;1466;48.778;9.166;2023-08-21T06:17:04;27.10;99.90
2913;DHT22;1466;48.778;9.166;2023-08-21T06:19:30;27.20;99.90
2913;DHT22;1466;48.778;9.166;2023-08-21T06:21:56;27.10;99.90
2913;DHT22;1466;48.778;9.166;2023-08-21T06:24:22;27.10;99.90
2913;DHT22;1466;48.778;9.166;2023-08-21T06:26:48;27.20;99.90
2913;DHT22;1466;48.778;9.166;2023-08-21T06:29:14;27.20;99.90
2913;DHT22;1466;48.778;9.166;2023-08-21T06:31:39;27.20;99.90
2913;DHT22;1466;48.778;9.166;2023-08-21T06:34:05;27.30;99.90
2913;DHT22;1466;48.778;9.166;2023-08-21T06:36:31;27.30;99.90
2913;DHT22;1466;48.778;9.166;2023-08-21T06:38:56;27.30;99.90
2913;DHT22;1466;48.778;9.166;2023-08-21T06:41:22;27.30;99.90
2913;DHT22;1466;48.778;9.166;2023-08-21T06:43:48;27.40;99.90
2913;DHT22;1466;48.778;9.166;2023-08-21T06:46:13;27.40;99.90
2913;DHT22;1466;48.778;9.166;2023-08-21T06:48:40;27.50;99.90
2913;DHT22;1466;48.778;9.166;2023-08-21T06:51:06;27.60;99.90
2913;DHT22;1466;48.778;9.166;2023-08-21T06:53:32;27.60;99.90
2913;DHT22;1466;48.778;9.166;2023-08-21T06:55:58;27.70;99.90
2913;DHT22;1466;48.778;9.166;2023-08-21T06:58:26;27.70;99.90
2913;DHT22;1466;48.778;9.166;2023-08-21T07:00:54;27.70;99.90
2913;DHT22;1466;48.778;9.166;2023-08-21T07:03:20;27.70;99.90
2913;DHT22;1466;48.778;9.166;2023-08-21T07:05:59;27.80;99.90
2913;DHT22;1466;48.778;9.166;2023-08-21T07:08:26;27.80;99.90
2913;DHT22;1466;48.778;9.166;2023-08-21T07:10:52;27.90;99.90
2913;DHT22;1466;48.778;9.166;2023-08-21T07:13:18;27.90;99.90
2913;DHT22;1466;48.778;9.166;2023-08-21T07:15:44;28.00;99.90
2913;DHT22;1466;48.778;9.166;2023-08-21T07:18:09;28.00;99.90
2913;DHT22;1466;48.778;9.166;2023-08-21T07:20:35;28.20;99.90
2913;DHT22;1466;48.778;9.166;2023-08-21T07:23:01;28.20;99.90
2913;DHT22;1466;48.778;9.166;2023-08-21T07:25:27;28.30;99.90
2913;DHT22;1466;48.778;9.166;2023-08-21T07:27:54;28.30;99.90
2913;DHT22;1466;48.778;9.166;2023-08-21T07:30:20;28.40;99.90
2913;DHT22;1466;48.778;9.166;2023-08-21T07:32:46;28.40;99.90
2913;DHT22;1466;48.778;9.166;2023-08-21T07:35:12;28.40;99.90
2913;DHT22;1466;48.778;9.166;2023-08-21T07:37:38;28.60;99.90
2913;DHT22;1466;48.778;9.166;2023-08-21T07:40:07;28.70;99.90
2913;DHT22;1466;48.778;9.166;2023-08-21T07:42:32;28.80;99.90
2913;DHT22;1466;48.778;9.166;2023-08-21T07:44:58;28.80;99.90
2913;DHT22;1466;48.778;9.166;2023-08-21T07:47:24;28.80;99.90
2913;DHT22;1466;48.778;9.166;2023-08-21T07:49:51;28.90;99.90
2913;DHT22;1466;48.778;9.166;2023-08-21T07:52:17;28.90;99.90
2913;DHT22;1466;48.778;9.166;2023-08-21T07:54:42;29.00;99.90
2913;DHT22;1466;48.778;9.166;2023-08-21T07:57:08;29.10;99.90
2913;DHT22;1466;48.778;9.166;2023-08-21T07:59:34;29.20;99.90
2913;DHT22;1466;48.778;9.166;2023-08-21T08:01:59;29.20;99.90
2913;DHT22;1466;48.778;9.166;2023-08-21T08:04:25;29.20;99.90
2913;DHT22;1466;48.778;9.166;2023-08-21T08:06:52;29.20;99.90
2913;DHT22;1466;48.778;9.166;2023-08-21T08:09:17;29.30;99.90
2913;DHT22;1466;48.778;9.166;2023-08-21T08:11:43;29.30;99.90
2913;DHT22;1466;48.778;9.166;2023-08-21T08:14:09;29.40;99.90
2913;DHT22;1466;48.778;9.166;2023-08-21T08:16:34;29.40;99.90
2913;DHT22;1466;48.778;9.166;2023-08-21T08:19:00;29.60;99.90
2913;DHT22;1466;48.778;9.166;2023-08-21T08:21:28;29.60;99.90
2913;DHT22;1466;48.778;9.166;2023-08-21T08:23:56;29.70;99.90
2913;DHT22;1466;48.778;9.166;2023-08-21T08:26:22;29.80;99.90
2913;DHT22;1466;48.778;9.166;2023-08-21T08:28:48;29.90;99.90
2913;DHT22;1466;48.778;9.166;2023-08-21T08:31:17;29.90;99.90
2913;DHT22;1466;48.778;9.166;2023-08-21T08:33:43;29.90;99.90
2913;DHT22;1466;48.778;9.166;2023-08-21T08:36:08;30.10;99.90
2913;DHT22;1466;48.778;9.166;2023-08-21T08:38:34;30.20;99.90
2913;DHT22;1466;48.778;9.166;2023-08-21T08:41:02;30.40;99.90
2913;DHT22;1466;48.778;9.166;2023-08-21T08:43:27;30.40;99.90
2913;DHT22;1466;48.778;9.166;2023-08-21T08:45:56;30.50;99.40
2913;DHT22;1466;48.778;9.166;2023-08-21T08:48:23;30.50;98.90
2913;DHT22;1466;48.778;9.166;2023-08-21T08:50:50;30.50;98.80
2913;DHT22;1466;48.778;9.166;2023-08-21T08:53:17;30.50;98.80
2913;DHT22;1466;48.778;9.166;2023-08-21T08:55:44;30.60;99.00
2913;DHT22;1466;48.778;9.166;2023-08-21T08:58:09;30.60;99.00
2913;DHT22;1466;48.778;9.166;2023-08-21T09:00:35;30.60;98.80
2913;DHT22;1466;48.778;9.166;2023-08-21T09:03:00;30.70;98.60
2913;DHT22;1466;48.778;9.166;2023-08-21T09:05:26;30.70;98.20
2913;DHT22;1466;48.778;9.166;2023-08-21T09:08:24;30.80;98.30
2913;DHT22;1466;48.778;9.166;2023-08-21T09:10:49;30.90;98.20
2913;DHT22;1466;48.778;9.166;2023-08-21T09:13:17;31.00;98.10
2913;DHT22;1466;48.778;9.166;2023-08-21T09:15:45;31.10;97.80
2913;DHT22;1466;48.778;9.166;2023-08-21T09:18:12;31.10;97.40
2913;DHT22;1466;48.778;9.166;2023-08-21T09:20:38;31.10;97.40
2913;DHT22;1466;48.778;9.166;2023-08-21T09:23:04;31.20;97.20
2913;DHT22;1466;48.778;9.166;2023-08-21T09:25:40;31.20;97.00
2913;DHT22;1466;48.778;9.166;2023-08-21T09:28:07;31.30;97.00
2913;DHT22;1466;48.778;9.166;2023-08-21T09:33:17;31.50;96.20
2913;DHT22;1466;48.778;9.166;2023-08-21T09:35:44;31.90;95.20
2913;DHT22;1466;48.778;9.166;2023-08-21T09:38:09;32.50;94.30
2913;DHT22;1466;48.778;9.166;2023-08-21T09:40:49;32.90;93.70
2913;DHT22;1466;48.778;9.166;2023-08-21T09:43:16;33.50;93.00
2913;DHT22;1466;48.778;9.166;2023-08-21T09:45:46;33.70;91.50
2913;DHT22;1466;48.778;9.166;2023-08-21T09:48:12;33.80;90.60
2913;DHT22;1466;48.778;9.166;2023-08-21T09:50:38;33.90;90.20
2913;DHT22;1466;48.778;9.166;2023-08-21T09:53:06;33.90;89.80
2913;DHT22;1466;48.778;9.166;2023-08-21T09:55:32;33.90;90.00
2913;DHT22;1466;48.778;9.166;2023-08-21T09:57:59;34.00;90.00
2913;DHT22;1466;48.778;9.166;2023-08-21T10:00:33;34.00;89.60
2913;DHT22;1466;48.778;9.166;2023-08-21T10:03:11;34.00;89.90
2913;DHT22;1466;48.778;9.166;2023-08-21T10:05:39;34.00;89.90
2913;DHT22;1466;48.778;9.166;2023-08-21T10:08:06;34.00;89.40
2913;DHT22;1466;48.778;9.166;2023-08-21T10:10:36;33.80;88.40
2913;DHT22;1466;48.778;9.166;2023-08-21T10:13:03;33.70;89.10
2913;DHT22;1466;48.778;9.166;2023-08-21T10:15:30;33.50;89.60
2913;DHT22;1466;48.778;9.166;2023-08-21T10:17:57;33.40;89.50
2913;DHT22;1466;48.778;9.166;2023-08-21T10:20:25;33.40;89.60
2913;DHT22;1466;48.778;9.166;2023-08-21T10:22:54;33.20;90.00
2913;DHT22;1466;48.778;9.166;2023-08-21T10:25:23;33.00;89.50
2913;DHT22;1466;48.778;9.166;2023-08-21T10:27:54;32.70;89.90
2913;DHT22;1466;48.778;9.166;2023-08-21T10:32:48;32.60;90.20
2913;DHT22;1466;48.778;9.166;2023-08-21T10:35:25;32.50;90.20
2913;DHT22;1466;48.778;9.166;2023-08-21T10:38:16;32.60;90.00
2913;DHT22;1466;48.778;9.166;2023-08-21T10:41:08;32.70;89.90
2913;DHT22;1466;48.778;9.166;2023-08-21T10:43:45;32.80;89.60
2913;DHT22;1466;48.778;9.166;2023-08-21T10:46:11;32.80;89.10
2913;DHT22;1466;48.778;9.166;2023-08-21T10:48:45;32.90;88.70
2913;DHT22;1466;48.778;9.166;2023-08-21T10:51:16;32.90;88.50
2913;DHT22;1466;48.778;9.166;2023-08-21T10:53:48;33.10;88.60
2913;DHT22;1466;48.778;9.166;2023-08-21T10:56:16;33.20;88.30
2913;DHT22;1466;48.778;9.166;2023-08-21T10:58:43;33.20;87.90
2913;DHT22;1466;48.778;9.166;2023-08-21T11:01:08;33.40;87.50
2913;DHT22;1466;48.778;9.166;2023-08-21T11:03:37;33.50;86.70
2913;DHT22;1466;48.778;9.166;2023-08-21T11:06:07;33.50;85.70
2913;DHT22;1466;48.778;9.166;2023-08-21T11:08:34;33.60;85.60
2913;DHT22;1466;48.778;9.166;2023-08-21T11:11:04;33.60;85.80
2913;DHT22;1466;48.778;9.166;2023-08-21T11:13:30;33.70;86.00
2913;DHT22;1466;48.778;9.166;2023-08-21T11:18:38;33.70;85.10
2913;DHT22;1466;48.778;9.166;2023-08-21T11:21:08;33.70;85.40
2913;DHT22;1466;48.778;9.166;2023-08-21T11:23:39;33.70;85.20
2913;DHT22;1466;48.778;9.166;2023-08-21T11:26:05;33.70;85.20
2913;DHT22;1466;48.778;9.166;2023-08-21T11:28:32;33.80;85.30
2913;DHT22;1466;48.778;9.166;2023-08-21T11:30:58;33.80;84.60
2913;DHT22;1466;48.778;9.166;2023-08-21T11:33:26;33.80;84.50
2913;DHT22;1466;48.778;9.166;2023-08-21T11:35:52;33.80;84.60
2913;DHT22;1466;48.778;9.166;2023-08-21T11:38:23;33.80;84.40
2913;DHT22;1466;48.778;9.166;2023-08-21T11:40:58;33.80;84.60
2913;DHT22;1466;48.778;9.166;2023-08-21T11:43:41;33.70;84.80
2913;DHT22;1466;48.778;9.166;2023-08-21T11:46:09;33.50;85.00
2913;DHT22;1466;48.778;9.166;2023-08-21T11:48:37;33.40;85.40
2913;DHT22;1466;48.778;9.166;2023-08-21T11:51:03;33.40;85.30
2913;DHT22;1466;48.778;9.166;2023-08-21T11:53:36;33.40;85.30
2913;DHT22;1466;48.778;9.166;2023-08-21T11:56:15;33.50;85.40
2913;DHT22;1466;48.778;9.166;2023-08-21T11:58:42;33.50;85.20
2913;DHT22;1466;48.778;9.166;2023-08-21T12:01:09;33.30;85.40
2913;DHT22;1466;48.778;9.166;2023-08-21T12:03:39;33.30;85.80
2913;DHT22;1466;48.778;9.166;2023-08-21T12:06:07;33.40;86.30
2913;DHT22;1466;48.778;9.166;2023-08-21T12:08:32;33.40;84.50
2913;DHT22;1466;48.778;9.166;2023-08-21T12:10:58;33.30;84.30
2913;DHT22;1466;48.778;9.166;2023-08-21T12:13:23;33.40;84.40
2913;DHT22;1466;48.778;9.166;2023-08-21T12:15:49;33.40;83.90
2913;DHT22;1466;48.778;9.166;2023-08-21T12:18:15;33.40;84.00
2913;DHT22;1466;48.778;9.166;2023-08-21T12:20:40;33.50;83.90
2913;DHT22;1466;48.778;9.166;2023-08-21T12:23:06;33.50;83.40
2913;DHT22;1466;48.778;9.166;2023-08-21T12:25:31;33.60;83.40
2913;DHT22;1466;48.778;9.166;2023-08-21T12:27:57;33.70;83.20
2913;DHT22;1466;48.778;9.166;2023-08-21T12:30:23;33.70;83.50
2913;DHT22;1466;48.778;9.166;2023-08-21T12:32:48;33.70;83.40
2913;DHT22;1466;48.778;9.166;2023-08-21T12:35:14;33.70;83.20
2913;DHT22;1466;48.778;9.166;2023-08-21T12:37:39;33.60;83.40
2913;DHT22;1466;48.778;9.166;2023-08-21T12:40:06;33.50;84.40
2913;DHT22;1466;48.778;9.166;2023-08-21T12:42:32;33.30;84.30
2913;DHT22;1466;48.778;9.166;2023-08-21T12:44:57;33.30;84.40
2913;DHT22;1466;48.778;9.166;2023-08-21T12:47:23;33.30;84.40
2913;DHT22;1466;48.778;9.166;2023-08-21T12:49:49;33.30;84.40
2913;DHT22;1466;48.778;9.166;2023-08-21T12:52:14;33.40;84.50
2913;DHT22;1466;48.778;9.166;2023-08-21T12:54:40;33.30;84.30
2913;DHT22;1466;48.778;9.166;2023-08-21T12:57:05;33.30;84.30
2913;DHT22;1466;48.778;9.166;2023-08-21T12:59:32;33.30;83.90
2913;DHT22;1466;48.778;9.166;2023-08-21T13:02:01;33.20;83.60
2913;DHT22;1466;48.778;9.166;2023-08-21T13:04:27;33.30;83.60
2913;DHT22;1466;48.778;9.166;2023-08-21T13:06:52;33.40;83.30
2913;DHT22;1466;48.778;9.166;2023-08-21T13:09:18;33.50;83.60
2913;DHT22;1466;48.778;9.166;2023-08-21T13:11:43;33.50;83.20
2913;DHT22;1466;48.778;9.166;2023-08-21T13:14:09;33.50;83.80
2913;DHT22;1466;48.778;9.166;2023-08-21T13:16:34;33.40;84.20
2913;DHT22;1466;48.778;9.166;2023-08-21T13:19:00;33.50;83.80
2913;DHT22;1466;48.778;9.166;2023-08-21T13:21:26;33.50;83.30
2913;DHT22;1466;48.778;9.166;2023-08-21T13:23:51;33.50;83.10
2913;DHT22;1466;48.778;9.166;2023-08-21T13:26:17;33.50;83.00
2913;DHT22;1466;48.778;9.166;2023-08-21T13:28:43;33.60;82.90
2913;DHT22;1466;48.778;9.166;2023-08-21T13:31:09;33.70;82.60
2913;DHT22;1466;48.778;9.166;2023-08-21T13:33:46;33.70;82.70
2913;DHT22;1466;48.778;9.166;2023-08-21T13:36:12;33.60;83.10
2913;DHT22;1466;48.778;9.166;2023-08-21T13:38:38;33.60;83.00
2913;DHT22;1466;48.778;9.166;2023-08-21T13:41:03;33.40;83.40
2913;DHT22;1466;48.778;9.166;2023-08-21T13:43:29;33.30;84.00
2913;DHT22;1466;48.778;9.166;2023-08-21T13:45:54;33.10;84.10
2913;DHT22;1466;48.778;9.166;2023-08-21T13:48:20;33.10;84.60
2913;DHT22;1466;48.778;9.166;2023-08-21T13:50:46;33.10;83.60
2913;DHT22;1466;48.778;9.166;2023-08-21T13:53:11;33.20;83.60
2913;DHT22;1466;48.778;9.166;2023-08-21T13:55:37;33.30;83.50
2913;DHT22;1466;48.778;9.166;2023-08-21T13:58:03;33.40;83.70
2913;DHT22;1466;48.778;9.166;2023-08-21T14:00:29;33.50;83.90
2913;DHT22;1466;48.778;9.166;2023-08-21T14:02:54;33.60;84.10
2913;DHT22;1466;48.778;9.166;2023-08-21T14:05:20;33.60;83.80
2913;DHT22;1466;48.778;9.166;2023-08-21T14:07:46;33.70;83.60
2913;DHT22;1466;48.778;9.166;2023-08-21T14:10:11;33.70;83.40
2913;DHT22;1466;48.778;9.166;2023-08-21T14:12:39;33.60;82.30
2913;DHT22;1466;48.778;9.166;2023-08-21T14:15:05;33.50;82.90
2913;DHT22;1466;48.778;9.166;2023-08-21T14:17:31;33.40;82.60
2913;DHT22;1466;48.778;9.166;2023-08-21T14:19:57;33.50;82.40
2913;DHT22;1466;48.778;9.166;2023-08-21T14:22:22;33.50;82.40
2913;DHT22;1466;48.778;9.166;2023-08-21T14:24:48;33.50;82.40
2913;DHT22;1466;48.778;9.166;2023-08-21T14:27:14;33.50;82.90
2913;DHT22;1466;48.778;9.166;2023-08-21T14:29:39;33.60;83.00
2913;DHT22;1466;48.778;9.166;2023-08-21T14:32:05;33.70;81.90
2913;DHT22;1466;48.778;9.166;2023-08-21T14:34:30;33.80;82.10
2913;DHT22;1466;48.778;9.166;2023-08-21T14:36:56;33.90;81.30
2913;DHT22;1466;48.778;9.166;2023-08-21T14:39:23;33.80;81.40
2913;DHT22;1466;48.778;9.166;2023-08-21T14:41:56;33.90;82.30
2913;DHT22;1466;48.778;9.166;2023-08-21T14:44:22;33.80;82.30
2913;DHT22;1466;48.778;9.166;2023-08-21T14:46:48;33.80;81.90
2913;DHT22;1466;48.778;9.166;2023-08-21T14:49:13;33.80;82.20
2913;DHT22;1466;48.778;9.166;2023-08-21T14:51:39;33.70;81.50
2913;DHT22;1466;48.778;9.166;2023-08-21T14:54:05;33.70;81.80
2913;DHT22;1466;48.778;9.166;2023-08-21T14:56:31;33.70;80.60
2913;DHT22;1466;48.778;9.166;2023-08-21T14:58:56;33.70;81.70
2913;DHT22;1466;48.778;9.166;2023-08-21T15:01:22;33.70;81.40
2913;DHT22;1466;48.778;9.166;2023-08-21T15:03:48;33.70;81.30
2913;DHT22;1466;48.778;9.166;2023-08-21T15:06:13;33.70;81.40
2913;DHT22;1466;48.778;9.166;2023-08-21T15:08:41;33.80;81.10
2913;DHT22;1466;48.778;9.166;2023-08-21T15:11:08;33.80;80.90
2913;DHT22;1466;48.778;9.166;2023-08-21T15:13:37;33.70;81.00
2913;DHT22;1466;48.778;9.166;2023-08-21T15:16:03;33.70;81.20
2913;DHT22;1466;48.778;9.166;2023-08-21T15:18:29;33.70;81.70
2913;DHT22;1466;48.778;9.166;2023-08-21T15:20:55;33.70;82.00
2913;DHT22;1466;48.778;9.166;2023-08-21T15:23:20;33.70;81.00
2913;DHT22;1466;48.778;9.166;2023-08-21T15:25:46;33.50;81.30
2913;DHT22;1466;48.778;9.166;2023-08-21T15:28:12;33.50;81.50
2913;DHT22;1466;48.778;9.166;2023-08-21T15:30:38;33.40;81.80
2913;DHT22;1466;48.778;9.166;2023-08-21T15:33:03;33.40;82.30
2913;DHT22;1466;48.778;9.166;2023-08-21T15:35:29;33.30;81.70
2913;DHT22;1466;48.778;9.166;2023-08-21T15:37:55;33.50;81.00
2913;DHT22;1466;48.778;9.166;2023-08-21T15:40:20;33.50;81.10
2913;DHT22;1466;48.778;9.166;2023-08-21T15:42:46;33.60;81.10
2913;DHT22;1466;48.778;9.166;2023-08-21T15:45:11;33.60;81.40
2913;DHT22;1466;48.778;9.166;2023-08-21T15:47:37;33.70;81.50
2913;DHT22;1466;48.778;9.166;2023-08-21T15:50:03;33.70;81.30
2913;DHT22;1466;48.778;9.166;2023-08-21T15:52:28;33.70;81.50
2913;DHT22;1466;48.778;9.166;2023-08-21T15:54:54;33.70;81.50
2913;DHT22;1466;48.778;9.166;2023-08-21T15:57:20;33.70;81.20
2913;DHT22;1466;48.778;9.166;2023-08-21T15:59:45;33.80;81.70
2913;DHT22;1466;48.778;9.166;2023-08-21T16:02:11;33.70;81.70
2913;DHT22;1466;48.778;9.166;2023-08-21T16:04:37;33.80;81.90
2913;DHT22;1466;48.778;9.166;2023-08-21T16:07:03;33.80;82.00
2913;DHT22;1466;48.778;9.166;2023-08-21T16:09:28;33.70;82.30